sensor_id;sensor_type;location;lat;lon;timestamp;pressure;altitude;pressure_sealevel;temperature;humidity
12963;BME280;6546;49.882;8.666;2023-04-09T00:02:25;100892.69;;;7.55;68.82
12963;BME280;6546;49.882;8.666;2023-04-09T00:04:52;100899.00;;;7.62;68.70
12963;BME280;6546;49.882;8.666;2023-04-09T00:07:18;100904.16;;;7.62;68.91
12963;BME280;6546;49.882;8.666;2023-04-09T00:09:46;100890.78;;;7.57;69.19
12963;BME280;6546;49.882;8.666;2023-04-09T00:12:13;100898.28;;;7.60;68.84
12963;BME280;6546;49.882;8.666;2023-04-09T00:14:40;100892.44;;;7.58;68.76
12963;BME280;6546;49.882;8.666;2023-04-09T00:17:06;100888.44;;;7.65;67.54
12963;BME280;6546;49.882;8.666;2023-04-09T00:19:33;100886.47;;;7.57;67.38
12963;BME280;6546;49.882;8.666;2023-04-09T00:21:59;100879.84;;;7.44;68.17
12963;BME280;6546;49.882;8.666;2023-04-09T00:24:26;100874.44;;;7.47;67.45
12963;BME280;6546;49.882;8.666;2023-04-09T00:26:59;100859.97;;;7.34;67.28
12963;BME280;6546;49.882;8.666;2023-04-09T00:29:26;100872.81;;;7.46;67.12
12963;BME280;6546;49.882;8.666;2023-04-09T00:31:53;100862.53;;;7.34;67.14
12963;BME280;6546;49.882;8.666;2023-04-09T00:34:19;100872.59;;;7.37;67.27
12963;BME280;6546;49.882;8.666;2023-04-09T00:36:46;100873.56;;;7.36;67.33
12963;BME280;6546;49.882;8.666;2023-04-09T00:39:12;100853.41;;;7.30;67.25
12963;BME280;6546;49.882;8.666;2023-04-09T00:41:39;100861.50;;;7.26;67.08
12963;BME280;6546;49.882;8.666;2023-04-09T00:44:07;100852.19;;;7.14;67.42
12963;BME280;6546;49.882;8.666;2023-04-09T00:46:34;100857.66;;;7.20;67.36
12963;BME280;6546;49.882;8.666;2023-04-09T00:49:00;100867.59;;;7.25;67.34
12963;BME280;6546;49.882;8.666;2023-04-09T00:51:27;100873.00;;;7.22;67.32
12963;BME280;6546;49.882;8.666;2023-04-09T00:53:54;100872.16;;;7.21;67.47
12963;BME280;6546;49.882;8.666;2023-04-09T00:56:23;100875.47;;;7.12;67.85
12963;BME280;6546;49.882;8.666;2023-04-09T00:58:50;100878.50;;;7.17;67.58
12963;BME280;6546;49.882;8.666;2023-04-09T01:01:17;100852.09;;;7.04;67.68
12963;BME280;6546;49.882;8.666;2023-04-09T01:03:44;100871.59;;;7.18;67.44
12963;BME280;6546;49.882;8.666;2023-04-09T01:06:16;100881.78;;;7.19;67.38
12963;BME280;6546;49.882;8.666;2023-04-09T01:08:50;100867.97;;;7.20;67.41
12963;BME280;6546;49.882;8.666;2023-04-09T01:11:25;100877.69;;;7.17;67.30
12963;BME280;6546;49.882;8.666;2023-04-09T01:14:04;100872.69;;;7.04;67.58
12963;BME280;6546;49.882;8.666;2023-04-09T01:16:34;100879.84;;;7.01;68.02
12963;BME280;6546;49.882;8.666;2023-04-09T01:19:09;100873.03;;;7.00;67.92
12963;BME280;6546;49.882;8.666;2023-04-09T01:21:37;100882.88;;;6.95;68.26
12963;BME280;6546;49.882;8.666;2023-04-09T01:24:18;100875.84;;;6.97;68.34
12963;BME280;6546;49.882;8.666;2023-04-09T01:26:54;100877.16;;;6.91;68.37
12963;BME280;6546;49.882;8.666;2023-04-09T01:29:24;100882.16;;;6.93;68.23
12963;BME280;6546;49.882;8.666;2023-04-09T01:31:53;100875.84;;;6.97;67.92
12963;BME280;6546;49.882;8.666;2023-04-09T01:34:21;100875.03;;;6.96;67.89
12963;BME280;6546;49.882;8.666;2023-04-09T01:36:51;100871.75;;;6.94;67.96
12963;BME280;6546;49.882;8.666;2023-04-09T01:39:19;100878.28;;;6.98;67.62
12963;BME280;6546;49.882;8.666;2023-04-09T01:41:47;100878.19;;;6.88;67.93
12963;BME280;6546;49.882;8.666;2023-04-09T01:44:16;100874.00;;;6.88;68.25
12963;BME280;6546;49.882;8.666;2023-04-09T01:46:45;100879.00;;;6.89;68.18
12963;BME280;6546;49.882;8.666;2023-04-09T01:49:12;100874.00;;;6.88;68.15
12963;BME280;6546;49.882;8.666;2023-04-09T01:51:41;100871.41;;;6.88;68.13
12963;BME280;6546;49.882;8.666;2023-04-09T01:54:07;100867.19;;;6.75;68.60
12963;BME280;6546;49.882;8.666;2023-04-09T01:56:41;100873.75;;;6.79;68.58
12963;BME280;6546;49.882;8.666;2023-04-09T01:59:08;100875.28;;;6.71;68.76
12963;BME280;6546;49.882;8.666;2023-04-09T02:01:37;100872.22;;;6.66;69.05
12963;BME280;6546;49.882;8.666;2023-04-09T02:04:10;100878.34;;;6.65;69.46
12963;BME280;6546;49.882;8.666;2023-04-09T02:06:43;100875.03;;;6.63;69.36
12963;BME280;6546;49.882;8.666;2023-04-09T02:09:15;100881.72;;;6.65;69.29
12963;BME280;6546;49.882;8.666;2023-04-09T02:11:45;100887.09;;;6.62;69.33
12963;BME280;6546;49.882;8.666;2023-04-09T02:14:14;100886.88;;;6.65;69.13
12963;BME280;6546;49.882;8.666;2023-04-09T02:16:41;100891.78;;;6.68;68.70
12963;BME280;6546;49.882;8.666;2023-04-09T02:19:09;100887.22;;;6.61;69.04
12963;BME280;6546;49.882;8.666;2023-04-09T02:21:35;100882.41;;;6.56;69.21
12963;BME280;6546;49.882;8.666;2023-04-09T02:24:02;100884.63;;;6.50;69.55
12963;BME280;6546;49.882;8.666;2023-04-09T02:26:29;100889.06;;;6.48;69.94
12963;BME280;6546;49.882;8.666;2023-04-09T02:28:55;100880.19;;;6.52;69.95
12963;BME280;6546;49.882;8.666;2023-04-09T02:31:22;100884.06;;;6.46;70.18
12963;BME280;6546;49.882;8.666;2023-04-09T02:33:49;100880.44;;;6.49;69.95
12963;BME280;6546;49.882;8.666;2023-04-09T02:36:17;100883.09;;;6.47;70.08
12963;BME280;6546;49.882;8.666;2023-04-09T02:38:44;100878.78;;;6.48;70.10
12963;BME280;6546;49.882;8.666;2023-04-09T02:41:10;100884.75;;;6.48;69.77
12963;BME280;6546;49.882;8.666;2023-04-09T02:43:37;100877.25;;;6.45;70.01
12963;BME280;6546;49.882;8.666;2023-04-09T02:46:04;100875.97;;;6.40;69.98
12963;BME280;6546;49.882;8.666;2023-04-09T02:48:30;100876.09;;;6.38;70.17
12963;BME280;6546;49.882;8.666;2023-04-09T02:50:57;100879.00;;;6.45;69.73
12963;BME280;6546;49.882;8.666;2023-04-09T02:53:25;100877.84;;;6.38;69.92
12963;BME280;6546;49.882;8.666;2023-04-09T02:55:51;100876.31;;;6.35;70.31
12963;BME280;6546;49.882;8.666;2023-04-09T02:58:18;100864.25;;;6.24;70.05
12963;BME280;6546;49.882;8.666;2023-04-09T03:00:44;100871.50;;;6.30;70.45
12963;BME280;6546;49.882;8.666;2023-04-09T03:03:11;100875.97;;;6.28;70.35
12963;BME280;6546;49.882;8.666;2023-04-09T03:05:37;100867.19;;;6.31;70.34
12963;BME280;6546;49.882;8.666;2023-04-09T03:08:04;100869.44;;;6.36;70.00
12963;BME280;6546;49.882;8.666;2023-04-09T03:10:32;100864.03;;;6.27;70.52
12963;BME280;6546;49.882;8.666;2023-04-09T03:12:58;100857.97;;;6.28;70.85
12963;BME280;6546;49.882;8.666;2023-04-09T03:15:25;100863.09;;;6.28;70.83
12963;BME280;6546;49.882;8.666;2023-04-09T03:17:52;100862.88;;;6.31;70.72
12963;BME280;6546;49.882;8.666;2023-04-09T03:20:18;100864.75;;;6.29;70.78
12963;BME280;6546;49.882;8.666;2023-04-09T03:22:45;100859.13;;;6.36;70.39
12963;BME280;6546;49.882;8.666;2023-04-09T03:25:11;100860.88;;;6.35;70.30
12963;BME280;6546;49.882;8.666;2023-04-09T03:27:39;100859.25;;;6.23;70.98
12963;BME280;6546;49.882;8.666;2023-04-09T03:30:07;100853.50;;;6.19;70.94
12963;BME280;6546;49.882;8.666;2023-04-09T03:32:34;100853.16;;;6.13;71.08
12963;BME280;6546;49.882;8.666;2023-04-09T03:35:00;100856.28;;;6.05;71.58
12963;BME280;6546;49.882;8.666;2023-04-09T03:37:27;100857.19;;;6.04;71.68
12963;BME280;6546;49.882;8.666;2023-04-09T03:39:54;100858.25;;;6.02;71.77
12963;BME280;6546;49.882;8.666;2023-04-09T03:42:20;100861.88;;;5.99;71.81
12963;BME280;6546;49.882;8.666;2023-04-09T03:44:48;100859.91;;;6.03;71.02
12963;BME280;6546;49.882;8.666;2023-04-09T03:47:15;100856.97;;;5.96;71.61
12963;BME280;6546;49.882;8.666;2023-04-09T03:49:41;100859.84;;;5.92;71.37
12963;BME280;6546;49.882;8.666;2023-04-09T03:52:08;100858.06;;;5.81;71.91
12963;BME280;6546;49.882;8.666;2023-04-09T03:54:34;100860.72;;;5.79;72.15
12963;BME280;6546;49.882;8.666;2023-04-09T03:57:01;100852.69;;;5.84;71.94
12963;BME280;6546;49.882;8.666;2023-04-09T03:59:28;100865.53;;;5.84;71.90
12963;BME280;6546;49.882;8.666;2023-04-09T04:01:59;100852.28;;;5.90;71.54
12963;BME280;6546;49.882;8.666;2023-04-09T04:04:26;100858.66;;;5.85;71.93
12963;BME280;6546;49.882;8.666;2023-04-09T04:06:52;100858.47;;;5.88;71.54
12963;BME280;6546;49.882;8.666;2023-04-09T04:09:19;100861.81;;;5.88;71.47
12963;BME280;6546;49.882;8.666;2023-04-09T04:11:45;100862.78;;;5.87;71.47
12963;BME280;6546;49.882;8.666;2023-04-09T04:14:12;100860.50;;;5.82;71.93
12963;BME280;6546;49.882;8.666;2023-04-09T04:16:39;100853.53;;;5.85;71.74
12963;BME280;6546;49.882;8.666;2023-04-09T04:19:07;100856.81;;;5.87;71.82
12963;BME280;6546;49.882;8.666;2023-04-09T04:21:33;100861.13;;;5.86;71.27
12963;BME280;6546;49.882;8.666;2023-04-09T04:24:00;100863.47;;;5.89;71.11
12963;BME280;6546;49.882;8.666;2023-04-09T04:26:26;100861.97;;;5.87;70.90
12963;BME280;6546;49.882;8.666;2023-04-09T04:28:53;100861.56;;;5.80;70.90
12963;BME280;6546;49.882;8.666;2023-04-09T04:31:20;100867.75;;;5.77;70.96
12963;BME280;6546;49.882;8.666;2023-04-09T04:33:46;100869.34;;;5.67;71.68
12963;BME280;6546;49.882;8.666;2023-04-09T04:36:14;100863.69;;;5.62;71.88
12963;BME280;6546;49.882;8.666;2023-04-09T04:38:41;100867.00;;;5.64;71.94
12963;BME280;6546;49.882;8.666;2023-04-09T04:41:09;100872.88;;;5.54;72.53
12963;BME280;6546;49.882;8.666;2023-04-09T04:43:36;100865.41;;;5.51;72.70
12963;BME280;6546;49.882;8.666;2023-04-09T04:46:03;100871.97;;;5.55;72.30
12963;BME280;6546;49.882;8.666;2023-04-09T04:48:30;100871.97;;;5.55;72.37
12963;BME280;6546;49.882;8.666;2023-04-09T04:50:58;100867.66;;;5.55;72.40
12963;BME280;6546;49.882;8.666;2023-04-09T04:53:26;100872.88;;;5.54;72.26
12963;BME280;6546;49.882;8.666;2023-04-09T04:55:53;100877.50;;;5.61;72.32
12963;BME280;6546;49.882;8.666;2023-04-09T04:58:19;100874.53;;;5.55;72.45
12963;BME280;6546;49.882;8.666;2023-04-09T05:00:46;100879.06;;;5.51;72.77
12963;BME280;6546;49.882;8.666;2023-04-09T05:03:13;100871.63;;;5.59;72.69
12963;BME280;6546;49.882;8.666;2023-04-09T05:05:40;100876.88;;;5.58;72.59
12963;BME280;6546;49.882;8.666;2023-04-09T05:08:06;100881.66;;;5.62;72.72
12963;BME280;6546;49.882;8.666;2023-04-09T05:10:34;100874.78;;;5.63;72.77
12963;BME280;6546;49.882;8.666;2023-04-09T05:13:01;100872.94;;;5.65;72.77
12963;BME280;6546;49.882;8.666;2023-04-09T05:15:27;100868.34;;;5.57;73.12
12963;BME280;6546;49.882;8.666;2023-04-09T05:17:54;100876.66;;;5.61;72.99
12963;BME280;6546;49.882;8.666;2023-04-09T05:20:20;100874.69;;;5.64;72.87
12963;BME280;6546;49.882;8.666;2023-04-09T05:22:47;100881.19;;;5.57;73.33
12963;BME280;6546;49.882;8.666;2023-04-09T05:25:13;100881.47;;;5.65;73.11
12963;BME280;6546;49.882;8.666;2023-04-09T05:27:42;100885.44;;;5.69;72.82
12963;BME280;6546;49.882;8.666;2023-04-09T05:30:09;100881.84;;;5.72;72.60
12963;BME280;6546;49.882;8.666;2023-04-09T05:32:36;100884.84;;;5.66;73.10
12963;BME280;6546;49.882;8.666;2023-04-09T05:35:03;100883.94;;;5.67;73.31
12963;BME280;6546;49.882;8.666;2023-04-09T05:37:30;100873.44;;;5.70;73.22
12963;BME280;6546;49.882;8.666;2023-04-09T05:39:57;100883.53;;;5.84;72.78
12963;BME280;6546;49.882;8.666;2023-04-09T05:42:23;100888.56;;;5.86;72.86
12963;BME280;6546;49.882;8.666;2023-04-09T05:44:51;100890.69;;;5.92;72.68
12963;BME280;6546;49.882;8.666;2023-04-09T05:47:18;100882.72;;;5.83;72.98
12963;BME280;6546;49.882;8.666;2023-04-09T05:49:44;100890.38;;;5.96;73.02
12963;BME280;6546;49.882;8.666;2023-04-09T05:52:11;100884.41;;;5.96;73.01
12963;BME280;6546;49.882;8.666;2023-04-09T05:54:37;100885.28;;;6.07;72.99
12963;BME280;6546;49.882;8.666;2023-04-09T05:57:04;100879.78;;;6.12;72.70
12963;BME280;6546;49.882;8.666;2023-04-09T05:59:30;100884.59;;;6.16;72.42
12963;BME280;6546;49.882;8.666;2023-04-09T06:01:58;100881.09;;;6.28;72.36
12963;BME280;6546;49.882;8.666;2023-04-09T06:04:25;100882.97;;;6.26;72.40
12963;BME280;6546;49.882;8.666;2023-04-09T06:06:51;100881.91;;;6.29;72.50
12963;BME280;6546;49.882;8.666;2023-04-09T06:09:18;100884.38;;;6.42;72.11
12963;BME280;6546;49.882;8.666;2023-04-09T06:11:44;100878.78;;;6.48;72.00
12963;BME280;6546;49.882;8.666;2023-04-09T06:14:11;100885.47;;;6.61;71.89
12963;BME280;6546;49.882;8.666;2023-04-09T06:16:40;100880.88;;;6.76;71.62
12963;BME280;6546;49.882;8.666;2023-04-09T06:19:08;100887.09;;;6.84;70.95
12963;BME280;6546;49.882;8.666;2023-04-09T06:21:36;100888.25;;;6.92;70.77
12963;BME280;6546;49.882;8.666;2023-04-09T06:24:03;100884.97;;;7.01;70.31
12963;BME280;6546;49.882;8.666;2023-04-09T06:26:30;100879.69;;;7.02;70.28
12963;BME280;6546;49.882;8.666;2023-04-09T06:28:56;100878.53;;;7.06;70.15
12963;BME280;6546;49.882;8.666;2023-04-09T06:31:23;100888.34;;;7.01;70.37
12963;BME280;6546;49.882;8.666;2023-04-09T06:33:49;100896.31;;;6.98;70.62
12963;BME280;6546;49.882;8.666;2023-04-09T06:36:18;100891.16;;;6.98;70.96
12963;BME280;6546;49.882;8.666;2023-04-09T06:38:44;100897.47;;;7.05;70.75
12963;BME280;6546;49.882;8.666;2023-04-09T06:41:11;100896.31;;;7.20;70.73
12963;BME280;6546;49.882;8.666;2023-04-09T06:43:39;100903.41;;;7.28;70.98
12963;BME280;6546;49.882;8.666;2023-04-09T06:46:05;100898.34;;;7.37;70.79
12963;BME280;6546;49.882;8.666;2023-04-09T06:48:32;100903.59;;;7.47;70.75
12963;BME280;6546;49.882;8.666;2023-04-09T06:50:58;100894.34;;;7.56;70.74
12963;BME280;6546;49.882;8.666;2023-04-09T06:53:26;100898.75;;;7.65;69.89
12963;BME280;6546;49.882;8.666;2023-04-09T06:55:53;100898.50;;;7.68;69.58
12963;BME280;6546;49.882;8.666;2023-04-09T06:58:20;100905.53;;;7.66;69.63
12963;BME280;6546;49.882;8.666;2023-04-09T07:00:47;100896.84;;;7.67;69.81
12963;BME280;6546;49.882;8.666;2023-04-09T07:03:13;100903.16;;;7.74;69.86
12963;BME280;6546;49.882;8.666;2023-04-09T07:05:40;100895.44;;;7.74;70.24
12963;BME280;6546;49.882;8.666;2023-04-09T07:08:07;100889.97;;;7.88;69.99
12963;BME280;6546;49.882;8.666;2023-04-09T07:10:35;100901.16;;;7.98;70.09
12963;BME280;6546;49.882;8.666;2023-04-09T07:13:01;100897.16;;;8.05;69.59
12963;BME280;6546;49.882;8.666;2023-04-09T07:15:28;100888.53;;;8.16;69.46
12963;BME280;6546;49.882;8.666;2023-04-09T07:17:54;100885.34;;;8.23;69.51
12963;BME280;6546;49.882;8.666;2023-04-09T07:20:21;100889.25;;;8.38;69.54
12963;BME280;6546;49.882;8.666;2023-04-09T07:22:48;100888.22;;;8.51;69.04
12963;BME280;6546;49.882;8.666;2023-04-09T07:25:15;100900.59;;;8.57;68.74
12963;BME280;6546;49.882;8.666;2023-04-09T07:27:42;100894.50;;;8.58;68.71
12963;BME280;6546;49.882;8.666;2023-04-09T07:30:09;100895.06;;;8.61;68.81
12963;BME280;6546;49.882;8.666;2023-04-09T07:32:36;100894.03;;;8.73;68.23
12963;BME280;6546;49.882;8.666;2023-04-09T07:35:04;100900.53;;;8.68;68.17
12963;BME280;6546;49.882;8.666;2023-04-09T07:37:31;100901.66;;;8.75;68.18
12963;BME280;6546;49.882;8.666;2023-04-09T07:39:58;100914.72;;;8.83;67.18
12963;BME280;6546;49.882;8.666;2023-04-09T07:42:25;100901.56;;;8.95;66.35
12963;BME280;6546;49.882;8.666;2023-04-09T07:44:53;100901.47;;;8.97;66.85
12963;BME280;6546;49.882;8.666;2023-04-09T07:47:21;100903.13;;;9.08;66.48
12963;BME280;6546;49.882;8.666;2023-04-09T07:49:48;100907.22;;;9.10;66.08
12963;BME280;6546;49.882;8.666;2023-04-09T07:52:15;100906.41;;;9.19;65.98
12963;BME280;6546;49.882;8.666;2023-04-09T07:54:42;100908.34;;;9.27;65.51
12963;BME280;6546;49.882;8.666;2023-04-09T07:57:08;100911.22;;;9.33;65.22
12963;BME280;6546;49.882;8.666;2023-04-09T07:59:35;100919.53;;;9.37;65.14
12963;BME280;6546;49.882;8.666;2023-04-09T08:02:03;100910.53;;;9.41;64.63
12963;BME280;6546;49.882;8.666;2023-04-09T08:04:30;100904.25;;;9.43;64.71
12963;BME280;6546;49.882;8.666;2023-04-09T08:06:57;100913.38;;;9.38;64.44
12963;BME280;6546;49.882;8.666;2023-04-09T08:09:23;100918.97;;;9.33;65.05
12963;BME280;6546;49.882;8.666;2023-04-09T08:11:50;100921.69;;;9.41;64.19
12963;BME280;6546;49.882;8.666;2023-04-09T08:14:17;100920.19;;;9.39;64.35
12963;BME280;6546;49.882;8.666;2023-04-09T08:16:46;100919.53;;;9.46;64.27
12963;BME280;6546;49.882;8.666;2023-04-09T08:19:15;100933.53;;;9.54;63.88
12963;BME280;6546;49.882;8.666;2023-04-09T08:21:42;100926.31;;;9.57;63.57
12963;BME280;6546;49.882;8.666;2023-04-09T08:24:09;100929.34;;;9.53;64.07
12963;BME280;6546;49.882;8.666;2023-04-09T08:26:36;100930.16;;;9.53;64.07
12963;BME280;6546;49.882;8.666;2023-04-09T08:29:02;100925.78;;;9.54;63.75
12963;BME280;6546;49.882;8.666;2023-04-09T08:31:29;100925.00;;;9.53;63.88
12963;BME280;6546;49.882;8.666;2023-04-09T08:33:56;100927.97;;;9.58;64.04
12963;BME280;6546;49.882;8.666;2023-04-09T08:36:24;100934.53;;;9.72;63.46
12963;BME280;6546;49.882;8.666;2023-04-09T08:38:51;100941.84;;;9.67;63.85
12963;BME280;6546;49.882;8.666;2023-04-09T08:41:20;100933.16;;;9.77;63.76
12963;BME280;6546;49.882;8.666;2023-04-09T08:43:50;100940.91;;;9.87;63.01
12963;BME280;6546;49.882;8.666;2023-04-09T08:46:17;100929.09;;;9.84;63.22
12963;BME280;6546;49.882;8.666;2023-04-09T08:48:44;100939.69;;;9.91;62.86
12963;BME280;6546;49.882;8.666;2023-04-09T08:51:14;100944.44;;;9.95;62.89
12963;BME280;6546;49.882;8.666;2023-04-09T08:53:43;100941.06;;;9.95;63.35
12963;BME280;6546;49.882;8.666;2023-04-09T08:56:12;100950.59;;;10.04;63.32
12963;BME280;6546;49.882;8.666;2023-04-09T08:58:41;100940.25;;;10.23;62.82
12963;BME280;6546;49.882;8.666;2023-04-09T09:01:17;100944.69;;;10.40;62.51
12963;BME280;6546;49.882;8.666;2023-04-09T09:03:55;100941.16;;;10.41;62.89
12963;BME280;6546;49.882;8.666;2023-04-09T09:06:23;100943.31;;;10.56;62.43
12963;BME280;6546;49.882;8.666;2023-04-09T09:09:02;100935.00;;;10.62;62.42
12963;BME280;6546;49.882;8.666;2023-04-09T09:11:30;100938.13;;;10.65;62.64
12963;BME280;6546;49.882;8.666;2023-04-09T09:13:57;100939.22;;;10.63;62.44
12963;BME280;6546;49.882;8.666;2023-04-09T09:16:24;100944.66;;;10.69;62.28
12963;BME280;6546;49.882;8.666;2023-04-09T09:18:51;100939.81;;;10.84;62.54
12963;BME280;6546;49.882;8.666;2023-04-09T09:21:20;100936.25;;;10.94;61.94
12963;BME280;6546;49.882;8.666;2023-04-09T09:23:47;100943.00;;;11.05;60.78
12963;BME280;6546;49.882;8.666;2023-04-09T09:26:17;100935.69;;;11.18;58.67
12963;BME280;6546;49.882;8.666;2023-04-09T09:28:46;100921.41;;;11.14;59.03
12963;BME280;6546;49.882;8.666;2023-04-09T09:31:15;100935.81;;;11.26;57.57
12963;BME280;6546;49.882;8.666;2023-04-09T09:33:42;100933.16;;;11.36;57.72
12963;BME280;6546;49.882;8.666;2023-04-09T09:36:08;100935.41;;;11.48;56.60
12963;BME280;6546;49.882;8.666;2023-04-09T09:38:50;100931.47;;;11.44;55.95
12963;BME280;6546;49.882;8.666;2023-04-09T09:41:20;100915.25;;;11.42;56.51
12963;BME280;6546;49.882;8.666;2023-04-09T09:43:47;100927.03;;;11.54;56.56
12963;BME280;6546;49.882;8.666;2023-04-09T09:46:14;100929.84;;;11.61;55.00
12963;BME280;6546;49.882;8.666;2023-04-09T09:48:41;100930.31;;;11.56;55.15
12963;BME280;6546;49.882;8.666;2023-04-09T09:51:09;100917.03;;;11.59;54.98
12963;BME280;6546;49.882;8.666;2023-04-09T09:53:37;100922.88;;;11.62;55.19
12963;BME280;6546;49.882;8.666;2023-04-09T09:56:05;100921.47;;;11.67;54.82
12963;BME280;6546;49.882;8.666;2023-04-09T09:58:36;100914.00;;;11.64;53.47
12963;BME280;6546;49.882;8.666;2023-04-09T10:01:06;100923.94;;;11.69;54.22
12963;BME280;6546;49.882;8.666;2023-04-09T10:03:34;100913.13;;;11.73;54.08
12963;BME280;6546;49.882;8.666;2023-04-09T10:06:02;100912.16;;;11.74;53.54
12963;BME280;6546;49.882;8.666;2023-04-09T10:08:30;100915.59;;;11.75;52.30
12963;BME280;6546;49.882;8.666;2023-04-09T10:10:59;100918.22;;;11.83;51.13
12963;BME280;6546;49.882;8.666;2023-04-09T10:13:32;100905.44;;;11.81;52.49
12963;BME280;6546;49.882;8.666;2023-04-09T10:16:02;100913.03;;;11.83;52.97
12963;BME280;6546;49.882;8.666;2023-04-09T10:18:29;100902.00;;;11.81;53.11
12963;BME280;6546;49.882;8.666;2023-04-09T10:20:58;100903.66;;;11.82;53.03
12963;BME280;6546;49.882;8.666;2023-04-09T10:23:32;100901.06;;;11.82;49.70
12963;BME280;6546;49.882;8.666;2023-04-09T10:26:01;100904.38;;;11.74;49.33
12963;BME280;6546;49.882;8.666;2023-04-09T10:28:29;100908.16;;;11.80;49.13
12963;BME280;6546;49.882;8.666;2023-04-09T10:30:56;100897.84;;;11.70;51.57
12963;BME280;6546;49.882;8.666;2023-04-09T10:33:25;100895.53;;;11.67;52.13
12963;BME280;6546;49.882;8.666;2023-04-09T10:35:53;100895.34;;;11.78;52.30
12963;BME280;6546;49.882;8.666;2023-04-09T10:38:33;100894.53;;;11.78;52.73
12963;BME280;6546;49.882;8.666;2023-04-09T10:41:06;100888.09;;;11.82;52.20
12963;BME280;6546;49.882;8.666;2023-04-09T10:43:33;100894.97;;;11.91;50.53
12963;BME280;6546;49.882;8.666;2023-04-09T10:46:03;100890.00;;;11.97;50.50
12963;BME280;6546;49.882;8.666;2023-04-09T10:48:33;100890.50;;;12.01;46.92
12963;BME280;6546;49.882;8.666;2023-04-09T10:51:01;100887.94;;;12.09;47.39
12963;BME280;6546;49.882;8.666;2023-04-09T10:53:31;100892.78;;;12.04;47.13
12963;BME280;6546;49.882;8.666;2023-04-09T10:55:57;100889.13;;;11.89;47.54
12963;BME280;6546;49.882;8.666;2023-04-09T10:58:24;100887.31;;;11.89;47.40
12963;BME280;6546;49.882;8.666;2023-04-09T11:00:52;100888.88;;;12.00;48.63
12963;BME280;6546;49.882;8.666;2023-04-09T11:03:21;100888.88;;;12.00;47.97
12963;BME280;6546;49.882;8.666;2023-04-09T11:05:57;100888.13;;;11.90;47.16
12963;BME280;6546;49.882;8.666;2023-04-09T11:08:27;100886.16;;;11.84;48.16
12963;BME280;6546;49.882;8.666;2023-04-09T11:10:55;100890.13;;;11.96;48.22
12963;BME280;6546;49.882;8.666;2023-04-09T11:13:23;100881.47;;;12.05;48.62
12963;BME280;6546;49.882;8.666;2023-04-09T11:15:50;100877.94;;;12.14;48.40
12963;BME280;6546;49.882;8.666;2023-04-09T11:18:20;100871.00;;;12.23;47.44
12963;BME280;6546;49.882;8.666;2023-04-09T11:20:47;100871.06;;;12.31;47.08
12963;BME280;6546;49.882;8.666;2023-04-09T11:23:16;100869.94;;;12.33;47.35
12963;BME280;6546;49.882;8.666;2023-04-09T11:25:47;100867.34;;;12.33;46.30
12963;BME280;6546;49.882;8.666;2023-04-09T11:28:15;100869.06;;;12.50;45.02
12963;BME280;6546;49.882;8.666;2023-04-09T11:30:41;100858.31;;;12.45;43.48
12963;BME280;6546;49.882;8.666;2023-04-09T11:33:09;100864.47;;;12.44;43.55
12963;BME280;6546;49.882;8.666;2023-04-09T11:35:35;100864.75;;;12.33;44.20
12963;BME280;6546;49.882;8.666;2023-04-09T11:38:05;100859.66;;;12.49;44.08
12963;BME280;6546;49.882;8.666;2023-04-09T11:40:34;100851.34;;;12.46;44.45
12963;BME280;6546;49.882;8.666;2023-04-09T11:43:01;100862.91;;;12.51;43.62
12963;BME280;6546;49.882;8.666;2023-04-09T11:45:29;100868.78;;;12.53;43.38
12963;BME280;6546;49.882;8.666;2023-04-09T11:47:57;100861.75;;;12.54;42.68
12963;BME280;6546;49.882;8.666;2023-04-09T11:50:24;100864.75;;;12.67;41.37
12963;BME280;6546;49.882;8.666;2023-04-09T11:52:51;100862.03;;;12.77;40.79
12963;BME280;6546;49.882;8.666;2023-04-09T11:55:27;100859.09;;;12.72;40.89
12963;BME280;6546;49.882;8.666;2023-04-09T11:58:00;100853.25;;;12.70;41.52
12963;BME280;6546;49.882;8.666;2023-04-09T12:00:27;100860.25;;;12.77;42.07
12963;BME280;6546;49.882;8.666;2023-04-09T12:03:00;100851.69;;;12.85;42.26
12963;BME280;6546;49.882;8.666;2023-04-09T12:05:28;100856.31;;;12.73;42.86
12963;BME280;6546;49.882;8.666;2023-04-09T12:07:57;100859.13;;;12.80;42.81
12963;BME280;6546;49.882;8.666;2023-04-09T12:10:26;100856.19;;;12.75;42.51
12963;BME280;6546;49.882;8.666;2023-04-09T12:12:53;100855.22;;;12.76;42.14
12963;BME280;6546;49.882;8.666;2023-04-09T12:15:23;100851.13;;;12.73;42.21
12963;BME280;6546;49.882;8.666;2023-04-09T12:17:52;100858.72;;;12.67;42.48
12963;BME280;6546;49.882;8.666;2023-04-09T12:20:30;100863.59;;;12.61;42.79
12963;BME280;6546;49.882;8.666;2023-04-09T12:22:58;100849.66;;;12.62;43.03
12963;BME280;6546;49.882;8.666;2023-04-09T12:25:25;100848.38;;;12.75;43.36
12963;BME280;6546;49.882;8.666;2023-04-09T12:27:52;100851.69;;;12.85;42.36
12963;BME280;6546;49.882;8.666;2023-04-09T12:30:21;100857.03;;;12.83;42.58
12963;BME280;6546;49.882;8.666;2023-04-09T12:32:48;100857.53;;;12.87;42.90
12963;BME280;6546;49.882;8.666;2023-04-09T12:35:14;100854.28;;;12.93;42.78
12963;BME280;6546;49.882;8.666;2023-04-09T12:37:41;100853.66;;;12.99;42.25
12963;BME280;6546;49.882;8.666;2023-04-09T12:40:08;100849.75;;;12.95;41.92
12963;BME280;6546;49.882;8.666;2023-04-09T12:42:38;100840.00;;;12.89;41.33
12963;BME280;6546;49.882;8.666;2023-04-09T12:45:06;100835.72;;;12.80;42.01
12963;BME280;6546;49.882;8.666;2023-04-09T12:47:34;100828.22;;;12.69;42.23
12963;BME280;6546;49.882;8.666;2023-04-09T12:50:00;100822.03;;;12.61;42.93
12963;BME280;6546;49.882;8.666;2023-04-09T12:52:27;100828.88;;;12.71;43.35
12963;BME280;6546;49.882;8.666;2023-04-09T12:54:54;100822.09;;;12.78;42.94
12963;BME280;6546;49.882;8.666;2023-04-09T12:57:20;100823.09;;;12.85;42.42
12963;BME280;6546;49.882;8.666;2023-04-09T12:59:47;100815.94;;;12.87;42.10
12963;BME280;6546;49.882;8.666;2023-04-09T13:02:13;100813.03;;;12.90;43.41
12963;BME280;6546;49.882;8.666;2023-04-09T13:04:41;100802.66;;;12.98;43.05
12963;BME280;6546;49.882;8.666;2023-04-09T13:07:08;100798.97;;;13.08;42.55
12963;BME280;6546;49.882;8.666;2023-04-09T13:09:36;100803.22;;;13.26;42.21
12963;BME280;6546;49.882;8.666;2023-04-09T13:12:02;100807.28;;;13.36;41.10